sensor_id;sensor_type;location;lat;lon;timestamp;pressure;altitude;pressure_sealevel;temperature;humidity
73671;BME280;61968;48.178;11.566;2022-12-05T00:01:15;95450.69;;;1.07;50.99
73671;BME280;61968;48.178;11.566;2022-12-05T00:03:42;95442.59;;;0.87;51.26
73671;BME280;61968;48.178;11.566;2022-12-05T00:06:09;95420.31;;;0.85;51.15
73671;BME280;61968;48.178;11.566;2022-12-05T00:08:37;95422.03;;;1.07;51.43
73671;BME280;61968;48.178;11.566;2022-12-05T00:11:03;95425.22;;;1.17;50.86
73671;BME280;61968;48.178;11.566;2022-12-05T00:13:38;95438.00;;;0.89;50.75
73671;BME280;61968;48.178;11.566;2022-12-05T00:16:06;95452.03;;;0.42;52.67
73671;BME280;61968;48.178;11.566;2022-12-05T00:18:33;95444.69;;;0.69;52.67
73671;BME280;61968;48.178;11.566;2022-12-05T00:20:59;95445.81;;;0.89;52.08
73671;BME280;61968;48.178;11.566;2022-12-05T00:23:26;95445.53;;;0.84;52.18
73671;BME280;61968;48.178;11.566;2022-12-05T00:25:54;95443.06;;;0.68;52.30
73671;BME280;61968;48.178;11.566;2022-12-05T00:28:21;95446.00;;;0.88;52.61
73671;BME280;61968;48.178;11.566;2022-12-05T00:30:47;95457.66;;;0.92;51.92
73671;BME280;61968;48.178;11.566;2022-12-05T00:33:14;95467.97;;;0.62;52.16
73671;BME280;61968;48.178;11.566;2022-12-05T00:35:40;95464.88;;;0.90;51.37
73671;BME280;61968;48.178;11.566;2022-12-05T00:38:07;95465.41;;;1.00;51.71
73671;BME280;61968;48.178;11.566;2022-12-05T00:40:34;95469.72;;;0.47;52.43
73671;BME280;61968;48.178;11.566;2022-12-05T00:43:02;95471.75;;;0.37;52.75
73671;BME280;61968;48.178;11.566;2022-12-05T00:45:29;95466.06;;;0.56;53.59
73671;BME280;61968;48.178;11.566;2022-12-05T00:47:55;95463.97;;;0.60;52.81
73671;BME280;61968;48.178;11.566;2022-12-05T00:50:22;95469.88;;;0.91;52.17
73671;BME280;61968;48.178;11.566;2022-12-05T00:52:49;95474.66;;;1.02;52.11
73671;BME280;61968;48.178;11.566;2022-12-05T00:55:15;95476.66;;;1.15;51.67
73671;BME280;61968;48.178;11.566;2022-12-05T00:57:42;95475.56;;;1.10;51.83
73671;BME280;61968;48.178;11.566;2022-12-05T01:00:11;95475.94;;;1.21;51.04
73671;BME280;61968;48.178;11.566;2022-12-05T01:02:37;95472.28;;;1.31;51.43
73671;BME280;61968;48.178;11.566;2022-12-05T01:05:04;95485.13;;;1.17;51.64
73671;BME280;61968;48.178;11.566;2022-12-05T01:07:31;95480.88;;;0.32;53.62
73671;BME280;61968;48.178;11.566;2022-12-05T01:09:58;95480.66;;;0.65;53.26
73671;BME280;61968;48.178;11.566;2022-12-05T01:12:24;95487.66;;;0.65;53.36
73671;BME280;61968;48.178;11.566;2022-12-05T01:14:52;95489.78;;;0.84;52.59
73671;BME280;61968;48.178;11.566;2022-12-05T01:17:20;95495.06;;;1.14;51.50
73671;BME280;61968;48.178;11.566;2022-12-05T01:19:46;95507.13;;;1.30;51.21
73671;BME280;61968;48.178;11.566;2022-12-05T01:22:13;95525.75;;;0.80;52.12
73671;BME280;61968;48.178;11.566;2022-12-05T01:24:39;95533.97;;;0.69;52.56
73671;BME280;61968;48.178;11.566;2022-12-05T01:27:06;95520.50;;;0.89;52.42
73671;BME280;61968;48.178;11.566;2022-12-05T01:29:33;95533.09;;;0.77;53.58
73671;BME280;61968;48.178;11.566;2022-12-05T01:31:59;95536.63;;;0.61;53.63
73671;BME280;61968;48.178;11.566;2022-12-05T01:34:28;95536.84;;;0.51;53.56
73671;BME280;61968;48.178;11.566;2022-12-05T01:36:54;95525.75;;;-0.05;54.86
73671;BME280;61968;48.178;11.566;2022-12-05T01:39:21;95515.09;;;0.13;54.94
73671;BME280;61968;48.178;11.566;2022-12-05T01:41:50;95517.25;;;0.09;54.38
73671;BME280;61968;48.178;11.566;2022-12-05T01:47:21;95523.50;;;0.54;54.58
73671;BME280;61968;48.178;11.566;2022-12-05T01:49:50;95524.59;;;0.60;53.28
73671;BME280;61968;48.178;11.566;2022-12-05T01:52:21;95525.81;;;0.18;54.77
73671;BME280;61968;48.178;11.566;2022-12-05T01:54:50;95543.22;;;0.18;55.33
73671;BME280;61968;48.178;11.566;2022-12-05T01:57:19;95543.69;;;0.13;54.63
73671;BME280;61968;48.178;11.566;2022-12-05T01:59:49;95550.25;;;0.40;54.90
73671;BME280;61968;48.178;11.566;2022-12-05T02:02:17;95544.63;;;0.83;53.16
73671;BME280;61968;48.178;11.566;2022-12-05T02:04:50;95554.34;;;0.89;52.60
73671;BME280;61968;48.178;11.566;2022-12-05T02:07:22;95564.75;;;0.89;52.36
73671;BME280;61968;48.178;11.566;2022-12-05T02:09:50;95559.94;;;0.77;53.80
73671;BME280;61968;48.178;11.566;2022-12-05T02:12:17;95566.09;;;0.85;53.04
73671;BME280;61968;48.178;11.566;2022-12-05T02:14:54;95585.91;;;0.86;52.59
73671;BME280;61968;48.178;11.566;2022-12-05T02:17:29;95595.47;;;0.62;53.76
73671;BME280;61968;48.178;11.566;2022-12-05T02:20:07;95600.88;;;0.21;53.47
73671;BME280;61968;48.178;11.566;2022-12-05T02:23:06;95601.31;;;-0.23;55.80
73671;BME280;61968;48.178;11.566;2022-12-05T02:31:52;95602.53;;;-0.58;56.84
73671;BME280;61968;48.178;11.566;2022-12-05T02:34:28;95607.84;;;-0.27;55.82
73671;BME280;61968;48.178;11.566;2022-12-05T02:37:00;95596.50;;;-0.75;57.12
73671;BME280;61968;48.178;11.566;2022-12-05T02:39:36;95610.28;;;-0.50;57.05
73671;BME280;61968;48.178;11.566;2022-12-05T02:42:11;95603.31;;;-0.41;56.83
73671;BME280;61968;48.178;11.566;2022-12-05T02:44:42;95608.16;;;-0.22;56.59
73671;BME280;61968;48.178;11.566;2022-12-05T02:47:12;95592.06;;;0.30;55.17
73671;BME280;61968;48.178;11.566;2022-12-05T02:49:42;95601.63;;;0.38;54.12
73671;BME280;61968;48.178;11.566;2022-12-05T02:52:12;95615.69;;;0.13;54.78
73671;BME280;61968;48.178;11.566;2022-12-05T02:54:41;95626.13;;;0.04;55.00
73671;BME280;61968;48.178;11.566;2022-12-05T02:57:10;95612.59;;;0.17;55.61
73671;BME280;61968;48.178;11.566;2022-12-05T02:59:38;95618.00;;;0.47;54.23
73671;BME280;61968;48.178;11.566;2022-12-05T03:02:07;95624.38;;;-0.12;55.27
73671;BME280;61968;48.178;11.566;2022-12-05T03:04:35;95628.91;;;-0.05;55.93
73671;BME280;61968;48.178;11.566;2022-12-05T03:07:05;95630.09;;;-0.57;57.02
73671;BME280;61968;48.178;11.566;2022-12-05T03:09:36;95633.50;;;-0.32;56.85
73671;BME280;61968;48.178;11.566;2022-12-05T03:12:08;95633.53;;;-0.40;56.85
73671;BME280;61968;48.178;11.566;2022-12-05T03:14:39;95627.66;;;-0.34;56.64
73671;BME280;61968;48.178;11.566;2022-12-05T03:17:09;95635.22;;;0.08;55.66
73671;BME280;61968;48.178;11.566;2022-12-05T03:19:46;95652.38;;;0.26;54.91
73671;BME280;61968;48.178;11.566;2022-12-05T03:22:19;95652.22;;;0.27;54.64
73671;BME280;61968;48.178;11.566;2022-12-05T03:24:47;95661.94;;;0.33;54.70
73671;BME280;61968;48.178;11.566;2022-12-05T03:27:20;95653.13;;;0.43;54.50
73671;BME280;61968;48.178;11.566;2022-12-05T03:29:50;95662.44;;;0.29;53.85
73671;BME280;61968;48.178;11.566;2022-12-05T03:32:22;95659.69;;;0.30;55.16
73671;BME280;61968;48.178;11.566;2022-12-05T03:34:58;95663.88;;;0.40;53.68
73671;BME280;61968;48.178;11.566;2022-12-05T03:37:36;95656.53;;;-0.13;56.11
73671;BME280;61968;48.178;11.566;2022-12-05T03:40:09;95672.22;;;0.19;55.13
73671;BME280;61968;48.178;11.566;2022-12-05T03:42:40;95669.56;;;0.43;54.80
73671;BME280;61968;48.178;11.566;2022-12-05T03:45:10;95676.63;;;0.02;55.44
73671;BME280;61968;48.178;11.566;2022-12-05T03:47:43;95673.03;;;0.19;55.33
73671;BME280;61968;48.178;11.566;2022-12-05T03:50:18;95683.16;;;0.14;55.00
73671;BME280;61968;48.178;11.566;2022-12-05T03:52:50;95688.22;;;-0.01;55.16
73671;BME280;61968;48.178;11.566;2022-12-05T03:55:21;95695.81;;;0.01;56.07
73671;BME280;61968;48.178;11.566;2022-12-05T03:57:51;95697.13;;;-0.12;55.28
73671;BME280;61968;48.178;11.566;2022-12-05T04:00:21;95696.97;;;0.06;56.60
73671;BME280;61968;48.178;11.566;2022-12-05T04:02:52;95698.03;;;0.37;54.68
73671;BME280;61968;48.178;11.566;2022-12-05T04:05:25;95691.56;;;0.32;54.40
73671;BME280;61968;48.178;11.566;2022-12-05T04:07:58;95687.88;;;-0.47;56.59
73671;BME280;61968;48.178;11.566;2022-12-05T04:10:28;95687.56;;;-0.11;56.06
73671;BME280;61968;48.178;11.566;2022-12-05T04:12:59;95694.16;;;0.16;55.32
73671;BME280;61968;48.178;11.566;2022-12-05T04:15:45;95694.97;;;0.17;55.83
73671;BME280;61968;48.178;11.566;2022-12-05T04:18:31;95698.59;;;-0.17;55.30
73671;BME280;61968;48.178;11.566;2022-12-05T04:21:02;95700.22;;;-0.08;56.39
73671;BME280;61968;48.178;11.566;2022-12-05T04:23:46;95712.88;;;0.11;56.15
73671;BME280;61968;48.178;11.566;2022-12-05T04:26:33;95707.25;;;0.47;54.76
73671;BME280;61968;48.178;11.566;2022-12-05T04:29:06;95714.69;;;0.03;54.58
73671;BME280;61968;48.178;11.566;2022-12-05T04:31:38;95709.97;;;0.06;55.35
73671;BME280;61968;48.178;11.566;2022-12-05T04:34:07;95722.78;;;-0.17;55.71
73671;BME280;61968;48.178;11.566;2022-12-05T04:36:40;95714.19;;;-0.17;56.66
73671;BME280;61968;48.178;11.566;2022-12-05T04:39:10;95713.06;;;-0.06;55.68
73671;BME280;61968;48.178;11.566;2022-12-05T04:41:43;95707.16;;;0.24;55.23
73671;BME280;61968;48.178;11.566;2022-12-05T04:44:16;95711.75;;;0.62;53.78
73671;BME280;61968;48.178;11.566;2022-12-05T04:46:44;95713.19;;;0.72;53.56
73671;BME280;61968;48.178;11.566;2022-12-05T04:49:17;95716.94;;;0.70;54.08
73671;BME280;61968;48.178;11.566;2022-12-05T04:51:48;95707.78;;;0.82;53.93
73671;BME280;61968;48.178;11.566;2022-12-05T04:54:20;95698.63;;;0.94;53.73
73671;BME280;61968;48.178;11.566;2022-12-05T04:56:50;95703.25;;;1.07;52.74
73671;BME280;61968;48.178;11.566;2022-12-05T04:59:18;95698.72;;;0.78;53.95
73671;BME280;61968;48.178;11.566;2022-12-05T05:01:47;95693.06;;;0.97;53.73
73671;BME280;61968;48.178;11.566;2022-12-05T05:04:18;95692.84;;;1.07;52.88
73671;BME280;61968;48.178;11.566;2022-12-05T05:06:48;95694.06;;;1.19;52.21
73671;BME280;61968;48.178;11.566;2022-12-05T05:09:14;95688.78;;;0.73;53.63
73671;BME280;61968;48.178;11.566;2022-12-05T05:11:41;95683.44;;;0.67;53.62
73671;BME280;61968;48.178;11.566;2022-12-05T05:14:07;95682.59;;;0.74;53.74
73671;BME280;61968;48.178;11.566;2022-12-05T05:16:36;95688.44;;;0.37;54.75
73671;BME280;61968;48.178;11.566;2022-12-05T05:19:03;95688.47;;;0.68;54.87
73671;BME280;61968;48.178;11.566;2022-12-05T05:21:32;95687.06;;;0.57;54.29
73671;BME280;61968;48.178;11.566;2022-12-05T05:24:00;95699.88;;;0.03;55.79
73671;BME280;61968;48.178;11.566;2022-12-05T05:26:28;95704.25;;;0.19;55.81
73671;BME280;61968;48.178;11.566;2022-12-05T05:28:56;95707.78;;;0.34;55.85
73671;BME280;61968;48.178;11.566;2022-12-05T05:31:23;95701.19;;;0.63;55.06
73671;BME280;61968;48.178;11.566;2022-12-05T05:33:52;95702.72;;;0.89;53.95
73671;BME280;61968;48.178;11.566;2022-12-05T05:36:20;95711.25;;;1.06;53.69
73671;BME280;61968;48.178;11.566;2022-12-05T05:38:49;95708.75;;;1.20;53.60
73671;BME280;61968;48.178;11.566;2022-12-05T05:41:19;95714.97;;;1.11;52.67
73671;BME280;61968;48.178;11.566;2022-12-05T05:43:46;95710.50;;;0.97;53.60
73671;BME280;61968;48.178;11.566;2022-12-05T05:46:14;95713.00;;;1.13;53.51
73671;BME280;61968;48.178;11.566;2022-12-05T05:48:41;95715.22;;;1.24;53.16
73671;BME280;61968;48.178;11.566;2022-12-05T05:51:08;95713.44;;;0.94;53.31
73671;BME280;61968;48.178;11.566;2022-12-05T05:53:35;95719.03;;;0.74;54.66
73671;BME280;61968;48.178;11.566;2022-12-05T05:56:02;95722.41;;;0.83;54.75
73671;BME280;61968;48.178;11.566;2022-12-05T05:58:30;95715.44;;;1.15;53.55
73671;BME280;61968;48.178;11.566;2022-12-05T06:01:01;95718.16;;;1.21;53.27
73671;BME280;61968;48.178;11.566;2022-12-05T06:03:28;95725.19;;;1.21;52.92
73671;BME280;61968;48.178;11.566;2022-12-05T06:05:56;95726.97;;;1.20;53.31
73671;BME280;61968;48.178;11.566;2022-12-05T06:08:22;95731.78;;;1.32;54.30
73671;BME280;61968;48.178;11.566;2022-12-05T06:10:49;95739.25;;;1.35;53.87
73671;BME280;61968;48.178;11.566;2022-12-05T06:13:15;95745.66;;;1.55;52.44
73671;BME280;61968;48.178;11.566;2022-12-05T06:15:43;95747.22;;;1.64;51.95
73671;BME280;61968;48.178;11.566;2022-12-05T06:18:10;95742.38;;;1.38;52.81
73671;BME280;61968;48.178;11.566;2022-12-05T06:20:36;95758.63;;;1.01;53.80
73671;BME280;61968;48.178;11.566;2022-12-05T06:23:03;95756.31;;;1.14;54.11
73671;BME280;61968;48.178;11.566;2022-12-05T06:25:29;95757.44;;;1.12;53.89
73671;BME280;61968;48.178;11.566;2022-12-05T06:27:56;95760.00;;;1.20;53.55
73671;BME280;61968;48.178;11.566;2022-12-05T06:30:22;95770.22;;;1.30;52.87
73671;BME280;61968;48.178;11.566;2022-12-05T06:32:50;95762.88;;;1.33;53.26
73671;BME280;61968;48.178;11.566;2022-12-05T06:35:17;95766.22;;;1.50;53.17
73671;BME280;61968;48.178;11.566;2022-12-05T06:37:44;95765.53;;;1.56;53.12
73671;BME280;61968;48.178;11.566;2022-12-05T06:40:11;95756.09;;;1.55;52.40
73671;BME280;61968;48.178;11.566;2022-12-05T06:42:38;95767.25;;;1.41;53.55
73671;BME280;61968;48.178;11.566;2022-12-05T06:45:05;95761.69;;;1.44;53.56
73671;BME280;61968;48.178;11.566;2022-12-05T06:47:40;95771.06;;;1.53;53.24
73671;BME280;61968;48.178;11.566;2022-12-05T06:50:07;95772.25;;;1.51;53.14
73671;BME280;61968;48.178;11.566;2022-12-05T06:52:34;95771.06;;;1.53;53.33
73671;BME280;61968;48.178;11.566;2022-12-05T06:55:00;95785.50;;;1.33;53.04
73671;BME280;61968;48.178;11.566;2022-12-05T06:57:27;95793.59;;;1.38;54.09
73671;BME280;61968;48.178;11.566;2022-12-05T06:59:53;95787.00;;;1.58;52.92
73671;BME280;61968;48.178;11.566;2022-12-05T07:02:42;95793.56;;;1.77;52.82
73671;BME280;61968;48.178;11.566;2022-12-05T07:05:08;95798.28;;;1.82;52.26
73671;BME280;61968;48.178;11.566;2022-12-05T07:07:35;95795.22;;;1.78;52.85
73671;BME280;61968;48.178;11.566;2022-12-05T07:10:02;95796.38;;;1.76;52.69
73671;BME280;61968;48.178;11.566;2022-12-05T07:12:31;95799.72;;;1.84;52.52
73671;BME280;61968;48.178;11.566;2022-12-05T07:14:58;95799.16;;;1.97;51.83
73671;BME280;61968;48.178;11.566;2022-12-05T07:17:25;95801.75;;;1.97;51.90
73671;BME280;61968;48.178;11.566;2022-12-05T07:19:53;95805.06;;;1.91;52.00
73671;BME280;61968;48.178;11.566;2022-12-05T07:22:21;95797.88;;;1.93;52.35
73671;BME280;61968;48.178;11.566;2022-12-05T07:24:50;95806.81;;;1.99;52.05
73671;BME280;61968;48.178;11.566;2022-12-05T07:27:16;95801.06;;;2.03;51.70
73671;BME280;61968;48.178;11.566;2022-12-05T07:29:43;95798.63;;;2.02;51.42
73671;BME280;61968;48.178;11.566;2022-12-05T07:32:09;95809.72;;;1.95;51.89
73671;BME280;61968;48.178;11.566;2022-12-05T07:34:36;95812.03;;;1.99;51.43
73671;BME280;61968;48.178;11.566;2022-12-05T07:37:05;95809.47;;;1.90;52.22
73671;BME280;61968;48.178;11.566;2022-12-05T07:39:32;95813.03;;;1.89;51.86
73671;BME280;61968;48.178;11.566;2022-12-05T07:41:58;95814.78;;;1.97;51.51
73671;BME280;61968;48.178;11.566;2022-12-05T07:44:25;95809.94;;;1.94;51.65
73671;BME280;61968;48.178;11.566;2022-12-05T07:46:51;95818.84;;;2.00;52.07
73671;BME280;61968;48.178;11.566;2022-12-05T07:49:18;95817.91;;;2.15;51.19
73671;BME280;61968;48.178;11.566;2022-12-05T07:51:44;95817.56;;;2.18;50.65
73671;BME280;61968;48.178;11.566;2022-12-05T07:54:12;95824.88;;;2.23;51.31
73671;BME280;61968;48.178;11.566;2022-12-05T07:56:39;95830.56;;;2.27;50.78
73671;BME280;61968;48.178;11.566;2022-12-05T07:59:05;95834.66;;;2.21;51.17
73671;BME280;61968;48.178;11.566;2022-12-05T08:01:32;95828.16;;;2.40;51.15
73671;BME280;61968;48.178;11.566;2022-12-05T08:03:58;95834.31;;;2.47;50.20
73671;BME280;61968;48.178;11.566;2022-12-05T08:06:26;95838.22;;;2.43;50.72
73671;BME280;61968;48.178;11.566;2022-12-05T08:08:53;95842.13;;;2.47;49.86
73671;BME280;61968;48.178;11.566;2022-12-05T08:11:23;95829.63;;;2.20;51.12
73671;BME280;61968;48.178;11.566;2022-12-05T08:13:51;95823.25;;;2.22;51.00
73671;BME280;61968;48.178;11.566;2022-12-05T08:16:19;95827.00;;;2.20;51.44
73671;BME280;61968;48.178;11.566;2022-12-05T08:18:46;95840.53;;;2.23;50.97
73671;BME280;61968;48.178;11.566;2022-12-05T08:21:15;95831.00;;;2.30;50.60
73671;BME280;61968;48.178;11.566;2022-12-05T08:23:42;95844.84;;;2.31;50.17
73671;BME280;61968;48.178;11.566;2022-12-05T08:26:10;95840.94;;;2.50;50.40
73671;BME280;61968;48.178;11.566;2022-12-05T08:28:39;95846.50;;;2.47;50.13
73671;BME280;61968;48.178;11.566;2022-12-05T08:31:07;95861.81;;;2.35;50.44
73671;BME280;61968;48.178;11.566;2022-12-05T08:33:34;95859.53;;;2.32;50.64
73671;BME280;61968;48.178;11.566;2022-12-05T08:36:01;95857.91;;;2.31;50.43
73671;BME280;61968;48.178;11.566;2022-12-05T08:38:28;95869.97;;;2.32;50.69
73671;BME280;61968;48.178;11.566;2022-12-05T08:40:54;95867.28;;;2.40;51.42
73671;BME280;61968;48.178;11.566;2022-12-05T08:43:21;95864.53;;;2.18;50.97
73671;BME280;61968;48.178;11.566;2022-12-05T08:45:50;95869.41;;;1.99;51.63
73671;BME280;61968;48.178;11.566;2022-12-05T08:48:16;95876.28;;;1.91;52.07
73671;BME280;61968;48.178;11.566;2022-12-05T08:50:43;95871.25;;;2.13;51.77
73671;BME280;61968;48.178;11.566;2022-12-05T08:53:10;95879.13;;;2.28;51.72
73671;BME280;61968;48.178;11.566;2022-12-05T08:55:36;95879.06;;;2.36;51.71
73671;BME280;61968;48.178;11.566;2022-12-05T08:58:03;95880.34;;;2.40;50.96
73671;BME280;61968;48.178;11.566;2022-12-05T09:00:29;95885.16;;;2.28;51.25
73671;BME280;61968;48.178;11.566;2022-12-05T09:02:58;95886.91;;;2.36;51.42
73671;BME280;61968;48.178;11.566;2022-12-05T09:05:25;95881.44;;;2.46;50.79
73671;BME280;61968;48.178;11.566;2022-12-05T09:07:51;95878.59;;;2.55;51.00
73671;BME280;61968;48.178;11.566;2022-12-05T09:10:18;95881.66;;;2.59;50.67
73671;BME280;61968;48.178;11.566;2022-12-05T09:12:44;95882.28;;;2.61;50.57
73671;BME280;61968;48.178;11.566;2022-12-05T09:15:11;95887.22;;;2.56;50.06
73671;BME280;61968;48.178;11.566;2022-12-05T09:17:38;95892.94;;;2.59;50.65
73671;BME280;61968;48.178;11.566;2022-12-05T09:20:07;95886.16;;;2.65;50.60
73671;BME280;61968;48.178;11.566;2022-12-05T09:22:36;95890.06;;;2.69;50.49
73671;BME280;61968;48.178;11.566;2022-12-05T09:25:03;95887.91;;;2.73;50.21
73671;BME280;61968;48.178;11.566;2022-12-05T09:27:30;95893.16;;;2.88;50.12
73671;BME280;61968;48.178;11.566;2022-12-05T09:29:56;95898.53;;;2.86;49.68
73671;BME280;61968;48.178;11.566;2022-12-05T09:32:23;95901.22;;;2.63;49.91
73671;BME280;61968;48.178;11.566;2022-12-05T09:34:49;95898.16;;;2.59;50.34
73671;BME280;61968;48.178;11.566;2022-12-05T09:37:17;95900.91;;;2.81;49.61
73671;BME280;61968;48.178;11.566;2022-12-05T09:39:44;95903.06;;;2.92;49.13
73671;BME280;61968;48.178;11.566;2022-12-05T09:42:20;95904.47;;;2.80;49.63
73671;BME280;61968;48.178;11.566;2022-12-05T09:44:57;95905.47;;;2.79;49.61
73671;BME280;61968;48.178;11.566;2022-12-05T09:47:34;95909.31;;;2.68;49.90
73671;BME280;61968;48.178;11.566;2022-12-05T09:50:12;95907.59;;;2.60;50.78
73671;BME280;61968;48.178;11.566;2022-12-05T09:52:43;95914.81;;;2.73;50.66
73671;BME280;61968;48.178;11.566;2022-12-05T09:55:14;95910.06;;;2.77;50.71
73671;BME280;61968;48.178;11.566;2022-12-05T09:57:44;95915.63;;;2.74;51.43
73671;BME280;61968;48.178;11.566;2022-12-05T10:00:13;95913.84;;;2.74;51.00
73671;BME280;61968;48.178;11.566;2022-12-05T10:02:47;95912.97;;;2.59;50.80
73671;BME280;61968;48.178;11.566;2022-12-05T10:05:18;95918.19;;;2.59;52.30
73671;BME280;61968;48.178;11.566;2022-12-05T10:07:59;95921.28;;;2.62;51.19
73671;BME280;61968;48.178;11.566;2022-12-05T10:10:33;95920.28;;;2.63;51.53
73671;BME280;61968;48.178;11.566;2022-12-05T10:13:26;95922.84;;;2.72;51.14
73671;BME280;61968;48.178;11.566;2022-12-05T10:15:57;95913.38;;;2.71;51.43
73671;BME280;61968;48.178;11.566;2022-12-05T10:18:33;95911.31;;;2.66;51.03
73671;BME280;61968;48.178;11.566;2022-12-05T10:21:08;95902.13;;;2.70;51.05
73671;BME280;61968;48.178;11.566;2022-12-05T10:23:46;95903.88;;;2.78;51.54
73671;BME280;61968;48.178;11.566;2022-12-05T10:26:15;95905.88;;;2.68;51.86
73671;BME280;61968;48.178;11.566;2022-12-05T10:28:48;95897.78;;;2.62;52.13
73671;BME280;61968;48.178;11.566;2022-12-05T10:31:20;95902.00;;;2.86;51.29
73671;BME280;61968;48.178;11.566;2022-12-05T10:33:50;95897.66;;;2.79;50.97
73671;BME280;61968;48.178;11.566;2022-12-05T10:36:19;95892.34;;;2.87;51.23
73671;BME280;61968;48.178;11.566;2022-12-05T10:38:47;95894.59;;;2.90;51.50
73671;BME280;61968;48.178;11.566;2022-12-05T10:41:14;95903.41;;;2.89;50.82
73671;BME280;61968;48.178;11.566;2022-12-05T10:43:42;95905.06;;;2.90;51.29
73671;BME280;61968;48.178;11.566;2022-12-05T10:46:10;95896.53;;;2.73;52.02
73671;BME280;61968;48.178;11.566;2022-12-05T10:48:39;95894.13;;;2.72;52.19
73671;BME280;61968;48.178;11.566;2022-12-05T10:51:12;95894.47;;;2.69;52.70
73671;BME280;61968;48.178;11.566;2022-12-05T10:53:41;95885.22;;;2.81;51.79
73671;BME280;61968;48.178;11.566;2022-12-05T10:56:38;95890.88;;;2.70;52.41
73671;BME280;61968;48.178;11.566;2022-12-05T10:59:07;95890.00;;;2.77;52.43
73671;BME280;61968;48.178;11.566;2022-12-05T11:01:34;95884.13;;;2.75;52.03
73671;BME280;61968;48.178;11.566;2022-12-05T11:04:07;95891.63;;;2.55;52.67
73671;BME280;61968;48.178;11.566;2022-12-05T11:06:35;95880.78;;;2.67;52.34
73671;BME280;61968;48.178;11.566;2022-12-05T11:09:03;95892.44;;;2.56;52.33
73671;BME280;61968;48.178;11.566;2022-12-05T11:11:31;95887.31;;;2.48;52.70
73671;BME280;61968;48.178;11.566;2022-12-05T11:14:01;95879.63;;;2.69;52.82
73671;BME280;61968;48.178;11.566;2022-12-05T11:16:30;95879.91;;;2.89;52.41
73671;BME280;61968;48.178;11.566;2022-12-05T11:19:17;95877.50;;;2.88;52.66
73671;BME280;61968;48.178;11.566;2022-12-05T11:21:44;95882.06;;;2.85;52.64
73671;BME280;61968;48.178;11.566;2022-12-05T11:24:20;95877.97;;;2.68;52.76
73671;BME280;61968;48.178;11.566;2022-12-05T11:26:47;95875.88;;;2.49;53.49
73671;BME280;61968;48.178;11.566;2022-12-05T11:29:32;95875.25;;;2.24;54.46
73671;BME280;61968;48.178;11.566;2022-12-05T11:31:59;95872.88;;;2.37;54.29
73671;BME280;61968;48.178;11.566;2022-12-05T11:34:29;95873.56;;;2.54;53.26
73671;BME280;61968;48.178;11.566;2022-12-05T11:37:00;95877.81;;;2.70;52.63
73671;BME280;61968;48.178;11.566;2022-12-05T11:39:30;95878.94;;;2.52;53.15
73671;BME280;61968;48.178;11.566;2022-12-05T11:42:12;95869.25;;;2.61;53.54
73671;BME280;61968;48.178;11.566;2022-12-05T11:45:02;95872.94;;;2.67;53.27
73671;BME280;61968;48.178;11.566;2022-12-05T11:47:42;95869.44;;;2.59;53.27
73671;BME280;61968;48.178;11.566;2022-12-05T11:50:23;95864.28;;;2.51;53.76
73671;BME280;61968;48.178;11.566;2022-12-05T11:52:59;95869.63;;;2.35;53.91
73671;BME280;61968;48.178;11.566;2022-12-05T11:55:32;95868.22;;;2.47;53.55
73671;BME280;61968;48.178;11.566;2022-12-05T12:01:05;95880.75;;;2.52;54.25
73671;BME280;61968;48.178;11.566;2022-12-05T12:06:29;95880.00;;;2.43;54.32
73671;BME280;61968;48.178;11.566;2022-12-05T12:09:17;95879.06;;;2.74;53.34
73671;BME280;61968;48.178;11.566;2022-12-05T12:11:49;95879.56;;;2.92;53.16
73671;BME280;61968;48.178;11.566;2022-12-05T12:14:23;95873.78;;;2.82;52.36
73671;BME280;61968;48.178;11.566;2022-12-05T12:16:58;95876.22;;;2.69;53.69
73671;BME280;61968;48.178;11.566;2022-12-05T12:19:42;95883.31;;;2.75;53.53
73671;BME280;61968;48.178;11.566;2022-12-05T12:22:26;95881.34;;;2.77;52.74
73671;BME280;61968;48.178;11.566;2022-12-05T12:25:07;95863.63;;;2.49;54.48
73671;BME280;61968;48.178;11.566;2022-12-05T12:27:45;95870.06;;;2.61;53.56
73671;BME280;61968;48.178;11.566;2022-12-05T12:30:19;95868.88;;;2.26;53.88
73671;BME280;61968;48.178;11.566;2022-12-05T12:32:57;95867.28;;;2.40;53.96
73671;BME280;61968;48.178;11.566;2022-12-05T12:35:30;95872.94;;;2.67;53.14
73671;BME280;61968;48.178;11.566;2022-12-05T12:38:10;95863.97;;;2.46;53.48
73671;BME280;61968;48.178;11.566;2022-12-05T12:40:45;95867.47;;;2.38;54.20
73671;BME280;61968;48.178;11.566;2022-12-05T12:43:22;95865.28;;;2.50;53.36
73671;BME280;61968;48.178;11.566;2022-12-05T12:46:05;95862.25;;;2.76;53.33
73671;BME280;61968;48.178;11.566;2022-12-05T12:48:49;95861.28;;;2.39;52.39
73671;BME280;61968;48.178;11.566;2022-12-05T12:51:20;95857.41;;;2.35;54.40
73671;BME280;61968;48.178;11.566;2022-12-05T12:54:05;95849.66;;;2.42;53.67
73671;BME280;61968;48.178;11.566;2022-12-05T12:56:48;95852.34;;;2.34;54.22
73671;BME280;61968;48.178;11.566;2022-12-05T12:59:31;95855.63;;;2.51;53.33
73671;BME280;61968;48.178;11.566;2022-12-05T13:02:12;95858.41;;;2.87;52.65
73671;BME280;61968;48.178;11.566;2022-12-05T13:04:47;95863.25;;;2.75;52.03
73671;BME280;61968;48.178;11.566;2022-12-05T13:07:17;95858.00;;;2.60;53.09
73671;BME280;61968;48.178;11.566;2022-12-05T13:09:49;95859.75;;;2.22;53.05
73671;BME280;61968;48.178;11.566;2022-12-05T13:12:22;95858.84;;;2.15;53.81
73671;BME280;61968;48.178;11.566;2022-12-05T13:14:52;95860.22;;;2.26;53.91
73671;BME280;61968;48.178;11.566;2022-12-05T13:17:21;95860.47;;;2.39;53.26
73671;BME280;61968;48.178;11.566;2022-12-05T13:19:50;95868.97;;;2.71;52.30
73671;BME280;61968;48.178;11.566;2022-12-05T13:22:19;95853.44;;;2.39;53.25
73671;BME280;61968;48.178;11.566;2022-12-05T13:24:49;95846.53;;;2.01;53.88
73671;BME280;61968;48.178;11.566;2022-12-05T13:27:17;95852.97;;;2.13;53.45
73671;BME280;61968;48.178;11.566;2022-12-05T13:29:48;95856.75;;;2.10;54.03
73671;BME280;61968;48.178;11.566;2022-12-05T13:32:31;95856.03;;;2.16;53.29